sensor_id;sensor_type;location;lat;lon;timestamp;temperature;humidity
7920;DHT22;18778;47.610;9.776;2023-03-01T00:01:19;0.00;99.90
7920;DHT22;18778;47.610;9.776;2023-03-01T00:03:45;-0.20;99.90
7920;DHT22;18778;47.610;9.776;2023-03-01T00:06:11;-0.20;99.90
7920;DHT22;18778;47.610;9.776;2023-03-01T00:08:36;-0.10;99.90
7920;DHT22;18778;47.610;9.776;2023-03-01T00:11:06;-0.10;99.90
7920;DHT22;18778;47.610;9.776;2023-03-01T00:13:32;0.10;99.90
7920;DHT22;18778;47.610;9.776;2023-03-01T00:15:58;-0.40;99.90
7920;DHT22;18778;47.610;9.776;2023-03-01T00:18:24;0.00;99.90
7920;DHT22;18778;47.610;9.776;2023-03-01T00:20:51;0.10;99.90
7920;DHT22;18778;47.610;9.776;2023-03-01T00:23:17;-0.10;99.90
7920;DHT22;18778;47.610;9.776;2023-03-01T00:25:43;0.10;99.90
7920;DHT22;18778;47.610;9.776;2023-03-01T00:28:08;0.20;99.90
7920;DHT22;18778;47.610;9.776;2023-03-01T00:30:34;0.20;99.90
7920;DHT22;18778;47.610;9.776;2023-03-01T00:33:00;0.10;99.90
7920;DHT22;18778;47.610;9.776;2023-03-01T00:35:25;-0.10;99.90
7920;DHT22;18778;47.610;9.776;2023-03-01T00:37:51;0.10;99.90
7920;DHT22;18778;47.610;9.776;2023-03-01T00:40:23;0.20;99.90
7920;DHT22;18778;47.610;9.776;2023-03-01T00:42:49;0.50;99.90
7920;DHT22;18778;47.610;9.776;2023-03-01T00:45:15;0.10;99.90
7920;DHT22;18778;47.610;9.776;2023-03-01T00:47:40;0.30;99.90
7920;DHT22;18778;47.610;9.776;2023-03-01T00:50:06;0.20;99.90
7920;DHT22;18778;47.610;9.776;2023-03-01T00:52:32;0.40;99.90
7920;DHT22;18778;47.610;9.776;2023-03-01T00:54:57;0.10;99.90
7920;DHT22;18778;47.610;9.776;2023-03-01T00:57:23;0.20;99.90
7920;DHT22;18778;47.610;9.776;2023-03-01T00:59:49;0.20;99.90
7920;DHT22;18778;47.610;9.776;2023-03-01T01:02:15;0.10;99.90
7920;DHT22;18778;47.610;9.776;2023-03-01T01:04:41;0.10;99.90
7920;DHT22;18778;47.610;9.776;2023-03-01T01:07:06;0.30;99.90
7920;DHT22;18778;47.610;9.776;2023-03-01T01:09:32;0.30;99.90
7920;DHT22;18778;47.610;9.776;2023-03-01T01:11:57;0.10;99.90
7920;DHT22;18778;47.610;9.776;2023-03-01T01:14:23;0.30;99.90
7920;DHT22;18778;47.610;9.776;2023-03-01T01:16:49;0.20;99.90
7920;DHT22;18778;47.610;9.776;2023-03-01T01:19:16;0.00;99.90
7920;DHT22;18778;47.610;9.776;2023-03-01T01:21:42;0.40;99.90
7920;DHT22;18778;47.610;9.776;2023-03-01T01:24:11;0.10;99.90
7920;DHT22;18778;47.610;9.776;2023-03-01T01:26:37;0.00;99.90
7920;DHT22;18778;47.610;9.776;2023-03-01T01:29:04;0.40;99.90
7920;DHT22;18778;47.610;9.776;2023-03-01T01:31:31;0.40;99.90
7920;DHT22;18778;47.610;9.776;2023-03-01T01:33:58;0.30;99.90
7920;DHT22;18778;47.610;9.776;2023-03-01T01:36:24;0.40;99.90
7920;DHT22;18778;47.610;9.776;2023-03-01T01:38:50;0.30;99.90
7920;DHT22;18778;47.610;9.776;2023-03-01T01:41:16;0.20;99.90
7920;DHT22;18778;47.610;9.776;2023-03-01T01:43:48;0.30;99.90
7920;DHT22;18778;47.610;9.776;2023-03-01T01:48:57;0.50;99.90
7920;DHT22;18778;47.610;9.776;2023-03-01T01:51:29;0.20;99.90
7920;DHT22;18778;47.610;9.776;2023-03-01T01:54:08;0.20;99.90
7920;DHT22;18778;47.610;9.776;2023-03-01T01:56:37;0.50;99.90
7920;DHT22;18778;47.610;9.776;2023-03-01T01:59:04;0.00;99.90
7920;DHT22;18778;47.610;9.776;2023-03-01T02:01:29;0.20;99.90
7920;DHT22;18778;47.610;9.776;2023-03-01T02:03:55;0.30;99.90
7920;DHT22;18778;47.610;9.776;2023-03-01T02:06:28;0.30;99.90
7920;DHT22;18778;47.610;9.776;2023-03-01T02:08:57;0.30;99.90
7920;DHT22;18778;47.610;9.776;2023-03-01T02:11:25;0.20;99.90
7920;DHT22;18778;47.610;9.776;2023-03-01T02:13:53;-0.20;99.90
7920;DHT22;18778;47.610;9.776;2023-03-01T02:16:20;0.30;99.90
7920;DHT22;18778;47.610;9.776;2023-03-01T02:18:46;0.30;99.90
7920;DHT22;18778;47.610;9.776;2023-03-01T02:23:37;0.20;99.90
7920;DHT22;18778;47.610;9.776;2023-03-01T02:26:23;0.20;99.90
7920;DHT22;18778;47.610;9.776;2023-03-01T02:28:51;0.10;99.90
7920;DHT22;18778;47.610;9.776;2023-03-01T02:31:18;0.30;99.90
7920;DHT22;18778;47.610;9.776;2023-03-01T02:34:04;0.20;99.90
7920;DHT22;18778;47.610;9.776;2023-03-01T02:36:35;0.00;99.90
7920;DHT22;18778;47.610;9.776;2023-03-01T02:39:04;0.00;99.90
7920;DHT22;18778;47.610;9.776;2023-03-01T02:41:35;0.10;99.90
7920;DHT22;18778;47.610;9.776;2023-03-01T02:44:01;0.20;99.90
7920;DHT22;18778;47.610;9.776;2023-03-01T02:46:27;0.20;99.90
7920;DHT22;18778;47.610;9.776;2023-03-01T02:48:54;0.30;99.90
7920;DHT22;18778;47.610;9.776;2023-03-01T02:56:39;0.40;99.90
7920;DHT22;18778;47.610;9.776;2023-03-01T02:59:06;0.10;99.90
7920;DHT22;18778;47.610;9.776;2023-03-01T03:01:32;0.20;99.90
7920;DHT22;18778;47.610;9.776;2023-03-01T03:04:10;0.20;99.90
7920;DHT22;18778;47.610;9.776;2023-03-01T03:06:36;0.20;99.90
7920;DHT22;18778;47.610;9.776;2023-03-01T03:09:02;0.30;99.90
7920;DHT22;18778;47.610;9.776;2023-03-01T03:11:28;0.30;99.90
7920;DHT22;18778;47.610;9.776;2023-03-01T03:13:54;0.20;99.90
7920;DHT22;18778;47.610;9.776;2023-03-01T03:16:20;0.30;99.90
7920;DHT22;18778;47.610;9.776;2023-03-01T03:18:46;0.40;99.90
7920;DHT22;18778;47.610;9.776;2023-03-01T03:21:12;0.20;99.90
7920;DHT22;18778;47.610;9.776;2023-03-01T03:23:38;0.30;99.90
7920;DHT22;18778;47.610;9.776;2023-03-01T03:26:04;0.30;99.90
7920;DHT22;18778;47.610;9.776;2023-03-01T03:28:34;0.30;99.90
7920;DHT22;18778;47.610;9.776;2023-03-01T03:31:00;0.20;99.90
7920;DHT22;18778;47.610;9.776;2023-03-01T03:33:30;-0.10;99.90
7920;DHT22;18778;47.610;9.776;2023-03-01T03:35:56;0.20;99.90
7920;DHT22;18778;47.610;9.776;2023-03-01T03:38:22;0.30;99.90
7920;DHT22;18778;47.610;9.776;2023-03-01T03:40:50;0.30;99.90
7920;DHT22;18778;47.610;9.776;2023-03-01T03:43:17;0.00;99.90
7920;DHT22;18778;47.610;9.776;2023-03-01T03:45:45;0.10;99.90
7920;DHT22;18778;47.610;9.776;2023-03-01T03:48:12;0.10;99.90
7920;DHT22;18778;47.610;9.776;2023-03-01T03:50:39;0.20;99.90
7920;DHT22;18778;47.610;9.776;2023-03-01T03:53:10;0.30;99.90
7920;DHT22;18778;47.610;9.776;2023-03-01T03:55:36;0.20;99.90
7920;DHT22;18778;47.610;9.776;2023-03-01T03:58:06;0.20;99.90
7920;DHT22;18778;47.610;9.776;2023-03-01T04:00:42;0.30;99.90
7920;DHT22;18778;47.610;9.776;2023-03-01T04:03:09;0.60;99.90
7920;DHT22;18778;47.610;9.776;2023-03-01T04:05:36;0.10;99.90
7920;DHT22;18778;47.610;9.776;2023-03-01T04:08:02;0.20;99.90
7920;DHT22;18778;47.610;9.776;2023-03-01T04:10:29;0.20;99.90
7920;DHT22;18778;47.610;9.776;2023-03-01T04:12:55;0.20;99.90
7920;DHT22;18778;47.610;9.776;2023-03-01T04:15:25;0.10;99.90
7920;DHT22;18778;47.610;9.776;2023-03-01T04:17:52;0.00;99.90
7920;DHT22;18778;47.610;9.776;2023-03-01T04:20:24;0.30;99.90
7920;DHT22;18778;47.610;9.776;2023-03-01T04:23:12;0.00;99.90
7920;DHT22;18778;47.610;9.776;2023-03-01T04:25:40;0.10;99.90
7920;DHT22;18778;47.610;9.776;2023-03-01T04:28:07;-0.10;99.90
7920;DHT22;18778;47.610;9.776;2023-03-01T04:30:33;0.10;99.90
7920;DHT22;18778;47.610;9.776;2023-03-01T04:33:02;0.30;99.90
7920;DHT22;18778;47.610;9.776;2023-03-01T04:35:29;0.20;99.90
7920;DHT22;18778;47.610;9.776;2023-03-01T04:37:54;0.00;99.90
7920;DHT22;18778;47.610;9.776;2023-03-01T04:40:20;-0.10;99.90
7920;DHT22;18778;47.610;9.776;2023-03-01T04:42:46;-0.50;99.90
7920;DHT22;18778;47.610;9.776;2023-03-01T04:45:12;0.50;99.90
7920;DHT22;18778;47.610;9.776;2023-03-01T04:47:42;2.30;99.90
7920;DHT22;18778;47.610;9.776;2023-03-01T04:50:08;0.20;99.90
7920;DHT22;18778;47.610;9.776;2023-03-01T04:52:34;0.50;99.90
7920;DHT22;18778;47.610;9.776;2023-03-01T04:55:00;-0.40;99.90
7920;DHT22;18778;47.610;9.776;2023-03-01T04:57:26;0.20;99.90
7920;DHT22;18778;47.610;9.776;2023-03-01T04:59:51;0.10;99.90
7920;DHT22;18778;47.610;9.776;2023-03-01T05:02:17;0.20;99.90
7920;DHT22;18778;47.610;9.776;2023-03-01T05:04:42;0.20;99.90
7920;DHT22;18778;47.610;9.776;2023-03-01T05:07:08;0.20;99.90
7920;DHT22;18778;47.610;9.776;2023-03-01T05:09:34;0.20;99.90
7920;DHT22;18778;47.610;9.776;2023-03-01T05:11:59;0.20;99.90
7920;DHT22;18778;47.610;9.776;2023-03-01T05:14:25;0.10;99.90
7920;DHT22;18778;47.610;9.776;2023-03-01T05:16:50;0.10;99.90
7920;DHT22;18778;47.610;9.776;2023-03-01T05:19:16;0.30;99.90
7920;DHT22;18778;47.610;9.776;2023-03-01T05:21:43;0.20;99.90
7920;DHT22;18778;47.610;9.776;2023-03-01T05:24:28;-0.10;99.90
7920;DHT22;18778;47.610;9.776;2023-03-01T05:26:54;0.10;99.90
7920;DHT22;18778;47.610;9.776;2023-03-01T05:29:20;0.30;99.90
7920;DHT22;18778;47.610;9.776;2023-03-01T05:31:54;0.20;99.90
7920;DHT22;18778;47.610;9.776;2023-03-01T05:34:28;0.30;99.90
7920;DHT22;18778;47.610;9.776;2023-03-01T05:36:54;-0.10;99.90
7920;DHT22;18778;47.610;9.776;2023-03-01T05:39:21;0.10;99.90
7920;DHT22;18778;47.610;9.776;2023-03-01T05:41:48;0.10;99.90
7920;DHT22;18778;47.610;9.776;2023-03-01T05:44:14;0.00;99.90
7920;DHT22;18778;47.610;9.776;2023-03-01T05:46:39;0.30;99.90
7920;DHT22;18778;47.610;9.776;2023-03-01T05:49:05;0.20;99.90
7920;DHT22;18778;47.610;9.776;2023-03-01T05:51:30;0.20;99.90
7920;DHT22;18778;47.610;9.776;2023-03-01T05:54:05;0.00;99.90
7920;DHT22;18778;47.610;9.776;2023-03-01T05:56:35;0.20;99.90
7920;DHT22;18778;47.610;9.776;2023-03-01T05:59:01;0.10;99.90
7920;DHT22;18778;47.610;9.776;2023-03-01T06:01:27;0.20;99.90
7920;DHT22;18778;47.610;9.776;2023-03-01T06:03:53;0.20;99.90
7920;DHT22;18778;47.610;9.776;2023-03-01T06:06:18;0.20;99.90
7920;DHT22;18778;47.610;9.776;2023-03-01T06:08:44;0.20;99.90
7920;DHT22;18778;47.610;9.776;2023-03-01T06:11:09;0.20;99.90
7920;DHT22;18778;47.610;9.776;2023-03-01T06:13:35;0.20;99.90
7920;DHT22;18778;47.610;9.776;2023-03-01T06:16:03;0.20;99.90
7920;DHT22;18778;47.610;9.776;2023-03-01T06:18:29;0.10;99.90
7920;DHT22;18778;47.610;9.776;2023-03-01T06:20:55;0.20;99.90
7920;DHT22;18778;47.610;9.776;2023-03-01T06:23:22;0.10;99.90
7920;DHT22;18778;47.610;9.776;2023-03-01T06:25:47;0.20;99.90
7920;DHT22;18778;47.610;9.776;2023-03-01T06:28:13;0.20;99.90
7920;DHT22;18778;47.610;9.776;2023-03-01T06:30:38;0.20;99.90
7920;DHT22;18778;47.610;9.776;2023-03-01T06:33:04;0.20;99.90
7920;DHT22;18778;47.610;9.776;2023-03-01T06:35:30;0.20;99.90
7920;DHT22;18778;47.610;9.776;2023-03-01T06:37:56;0.10;99.90
7920;DHT22;18778;47.610;9.776;2023-03-01T06:40:23;0.20;99.90
7920;DHT22;18778;47.610;9.776;2023-03-01T06:42:49;0.10;99.90
7920;DHT22;18778;47.610;9.776;2023-03-01T06:45:17;0.10;99.90
7920;DHT22;18778;47.610;9.776;2023-03-01T06:47:43;0.50;99.90
7920;DHT22;18778;47.610;9.776;2023-03-01T06:50:09;0.20;99.90
7920;DHT22;18778;47.610;9.776;2023-03-01T06:52:34;0.50;99.90
7920;DHT22;18778;47.610;9.776;2023-03-01T06:55:00;0.40;99.90
7920;DHT22;18778;47.610;9.776;2023-03-01T06:57:26;0.10;99.90
7920;DHT22;18778;47.610;9.776;2023-03-01T06:59:52;0.40;99.90
7920;DHT22;18778;47.610;9.776;2023-03-01T07:02:17;0.40;99.90
7920;DHT22;18778;47.610;9.776;2023-03-01T07:04:43;0.10;99.90
7920;DHT22;18778;47.610;9.776;2023-03-01T07:07:08;0.20;99.90
7920;DHT22;18778;47.610;9.776;2023-03-01T07:09:34;0.40;99.90
7920;DHT22;18778;47.610;9.776;2023-03-01T07:12:00;0.40;99.90
7920;DHT22;18778;47.610;9.776;2023-03-01T07:14:26;0.20;99.90
7920;DHT22;18778;47.610;9.776;2023-03-01T07:16:54;0.70;99.90
7920;DHT22;18778;47.610;9.776;2023-03-01T07:19:21;0.20;99.90
7920;DHT22;18778;47.610;9.776;2023-03-01T07:21:47;0.50;99.90
7920;DHT22;18778;47.610;9.776;2023-03-01T07:24:12;0.10;99.90
7920;DHT22;18778;47.610;9.776;2023-03-01T07:26:38;0.50;99.90
7920;DHT22;18778;47.610;9.776;2023-03-01T07:29:05;0.40;99.90
7920;DHT22;18778;47.610;9.776;2023-03-01T07:31:31;0.50;99.90
7920;DHT22;18778;47.610;9.776;2023-03-01T07:33:57;0.50;99.90
7920;DHT22;18778;47.610;9.776;2023-03-01T07:36:23;0.40;99.90
7920;DHT22;18778;47.610;9.776;2023-03-01T07:38:49;3.60;99.90
7920;DHT22;18778;47.610;9.776;2023-03-01T07:41:15;0.60;99.90
7920;DHT22;18778;47.610;9.776;2023-03-01T07:43:40;0.50;99.90
7920;DHT22;18778;47.610;9.776;2023-03-01T07:46:06;0.80;99.90
7920;DHT22;18778;47.610;9.776;2023-03-01T07:48:33;0.50;99.90
7920;DHT22;18778;47.610;9.776;2023-03-01T07:51:04;0.60;99.90
7920;DHT22;18778;47.610;9.776;2023-03-01T07:53:30;1.10;99.90
7920;DHT22;18778;47.610;9.776;2023-03-01T07:56:03;0.70;99.90
7920;DHT22;18778;47.610;9.776;2023-03-01T07:58:29;3.80;99.90
7920;DHT22;18778;47.610;9.776;2023-03-01T08:00:55;0.70;99.90
7920;DHT22;18778;47.610;9.776;2023-03-01T08:03:20;0.70;99.90
7920;DHT22;18778;47.610;9.776;2023-03-01T08:05:46;0.90;99.90
7920;DHT22;18778;47.610;9.776;2023-03-01T08:08:11;0.90;99.90
7920;DHT22;18778;47.610;9.776;2023-03-01T08:10:37;0.90;99.90
7920;DHT22;18778;47.610;9.776;2023-03-01T08:13:02;1.00;99.90
7920;DHT22;18778;47.610;9.776;2023-03-01T08:15:28;1.00;99.90
7920;DHT22;18778;47.610;9.776;2023-03-01T08:17:53;1.00;99.90
7920;DHT22;18778;47.610;9.776;2023-03-01T08:20:19;1.10;99.90
7920;DHT22;18778;47.610;9.776;2023-03-01T08:22:44;1.10;99.90
7920;DHT22;18778;47.610;9.776;2023-03-01T08:25:10;0.80;99.90
7920;DHT22;18778;47.610;9.776;2023-03-01T08:27:35;1.00;99.90
7920;DHT22;18778;47.610;9.776;2023-03-01T08:30:01;1.20;99.90
7920;DHT22;18778;47.610;9.776;2023-03-01T08:32:26;1.30;99.90
7920;DHT22;18778;47.610;9.776;2023-03-01T08:34:52;1.20;99.90
7920;DHT22;18778;47.610;9.776;2023-03-01T08:37:18;1.20;99.90
7920;DHT22;18778;47.610;9.776;2023-03-01T08:39:43;1.20;99.90
7920;DHT22;18778;47.610;9.776;2023-03-01T08:42:09;1.10;99.90
7920;DHT22;18778;47.610;9.776;2023-03-01T08:44:34;1.20;99.90
7920;DHT22;18778;47.610;9.776;2023-03-01T08:47:00;1.20;99.90
7920;DHT22;18778;47.610;9.776;2023-03-01T08:49:27;1.00;99.90
7920;DHT22;18778;47.610;9.776;2023-03-01T08:51:53;1.00;99.90
7920;DHT22;18778;47.610;9.776;2023-03-01T08:54:21;1.10;99.90
7920;DHT22;18778;47.610;9.776;2023-03-01T08:56:48;1.10;99.90
7920;DHT22;18778;47.610;9.776;2023-03-01T08:59:15;1.30;99.90
7920;DHT22;18778;47.610;9.776;2023-03-01T09:01:41;1.30;99.90
7920;DHT22;18778;47.610;9.776;2023-03-01T09:04:11;1.40;99.90
7920;DHT22;18778;47.610;9.776;2023-03-01T09:06:37;1.50;99.90
7920;DHT22;18778;47.610;9.776;2023-03-01T09:09:04;1.40;99.90
7920;DHT22;18778;47.610;9.776;2023-03-01T09:11:30;1.30;99.90
7920;DHT22;18778;47.610;9.776;2023-03-01T09:13:56;1.70;99.90
7920;DHT22;18778;47.610;9.776;2023-03-01T09:16:23;1.30;99.90
7920;DHT22;18778;47.610;9.776;2023-03-01T09:18:53;1.50;99.90
7920;DHT22;18778;47.610;9.776;2023-03-01T09:21:20;1.40;99.90
7920;DHT22;18778;47.610;9.776;2023-03-01T09:23:47;1.30;99.90
7920;DHT22;18778;47.610;9.776;2023-03-01T09:26:16;1.30;99.90
7920;DHT22;18778;47.610;9.776;2023-03-01T09:28:42;1.50;99.90
7920;DHT22;18778;47.610;9.776;2023-03-01T09:31:09;1.30;99.90
7920;DHT22;18778;47.610;9.776;2023-03-01T09:33:39;1.60;99.90
7920;DHT22;18778;47.610;9.776;2023-03-01T09:36:11;1.90;99.90
7920;DHT22;18778;47.610;9.776;2023-03-01T09:38:37;2.00;99.90
7920;DHT22;18778;47.610;9.776;2023-03-01T09:41:08;1.90;99.90
7920;DHT22;18778;47.610;9.776;2023-03-01T09:43:44;2.70;99.90
7920;DHT22;18778;47.610;9.776;2023-03-01T09:46:13;1.70;99.90
7920;DHT22;18778;47.610;9.776;2023-03-01T09:48:46;2.00;99.90
7920;DHT22;18778;47.610;9.776;2023-03-01T09:51:27;1.70;99.90
7920;DHT22;18778;47.610;9.776;2023-03-01T09:53:54;2.10;99.90
7920;DHT22;18778;47.610;9.776;2023-03-01T09:56:37;2.80;99.90
7920;DHT22;18778;47.610;9.776;2023-03-01T10:02:04;1.90;99.90
7920;DHT22;18778;47.610;9.776;2023-03-01T10:04:45;2.40;99.90
7920;DHT22;18778;47.610;9.776;2023-03-01T10:09:52;2.20;99.90
7920;DHT22;18778;47.610;9.776;2023-03-01T10:12:21;2.30;99.90
7920;DHT22;18778;47.610;9.776;2023-03-01T10:14:58;1.90;99.90
7920;DHT22;18778;47.610;9.776;2023-03-01T10:17:48;2.50;99.90
7920;DHT22;18778;47.610;9.776;2023-03-01T10:20:23;3.00;99.90
7920;DHT22;18778;47.610;9.776;2023-03-01T10:22:50;2.70;99.90
7920;DHT22;18778;47.610;9.776;2023-03-01T10:30:57;2.90;99.90
7920;DHT22;18778;47.610;9.776;2023-03-01T10:33:31;5.10;99.90
7920;DHT22;18778;47.610;9.776;2023-03-01T10:35:57;2.90;99.90
7920;DHT22;18778;47.610;9.776;2023-03-01T10:38:23;2.30;99.90
7920;DHT22;18778;47.610;9.776;2023-03-01T10:41:05;2.40;99.90
7920;DHT22;18778;47.610;9.776;2023-03-01T10:44:01;2.60;99.90
7920;DHT22;18778;47.610;9.776;2023-03-01T10:46:31;2.30;99.90
7920;DHT22;18778;47.610;9.776;2023-03-01T10:49:21;2.40;99.90
7920;DHT22;18778;47.610;9.776;2023-03-01T10:51:49;3.10;99.90
7920;DHT22;18778;47.610;9.776;2023-03-01T10:54:29;3.00;99.90
7920;DHT22;18778;47.610;9.776;2023-03-01T10:57:03;3.30;99.90
7920;DHT22;18778;47.610;9.776;2023-03-01T10:59:32;3.50;99.90
7920;DHT22;18778;47.610;9.776;2023-03-01T11:02:21;3.20;99.90
7920;DHT22;18778;47.610;9.776;2023-03-01T11:07:49;3.50;99.90
7920;DHT22;18778;47.610;9.776;2023-03-01T11:10:26;2.90;99.90
7920;DHT22;18778;47.610;9.776;2023-03-01T11:12:53;3.70;99.90
7920;DHT22;18778;47.610;9.776;2023-03-01T11:15:28;3.00;99.90
7920;DHT22;18778;47.610;9.776;2023-03-01T11:17:56;3.00;99.90
7920;DHT22;18778;47.610;9.776;2023-03-01T11:20:35;3.30;99.90
7920;DHT22;18778;47.610;9.776;2023-03-01T11:23:10;2.90;99.90
7920;DHT22;18778;47.610;9.776;2023-03-01T11:25:40;3.30;99.90
7920;DHT22;18778;47.610;9.776;2023-03-01T11:28:12;3.30;99.90
7920;DHT22;18778;47.610;9.776;2023-03-01T11:30:57;2.90;99.90
7920;DHT22;18778;47.610;9.776;2023-03-01T11:33:48;3.10;99.90
7920;DHT22;18778;47.610;9.776;2023-03-01T11:36:35;3.30;99.90
7920;DHT22;18778;47.610;9.776;2023-03-01T11:39:33;3.10;99.90
7920;DHT22;18778;47.610;9.776;2023-03-01T11:45:10;3.20;99.90
7920;DHT22;18778;47.610;9.776;2023-03-01T11:48:14;6.50;99.90
7920;DHT22;18778;47.610;9.776;2023-03-01T11:50:35;3.10;99.90
7920;DHT22;18778;47.610;9.776;2023-03-01T11:56:05;3.20;99.90
7920;DHT22;18778;47.610;9.776;2023-03-01T11:58:54;3.00;99.90
7920;DHT22;18778;47.610;9.776;2023-03-01T12:04:10;3.30;99.90
7920;DHT22;18778;47.610;9.776;2023-03-01T12:07:21;3.10;99.90
7920;DHT22;18778;47.610;9.776;2023-03-01T12:09:58;3.30;99.90
7920;DHT22;18778;47.610;9.776;2023-03-01T12:20:29;3.40;99.90
7920;DHT22;18778;47.610;9.776;2023-03-01T12:23:25;3.80;99.90
7920;DHT22;18778;47.610;9.776;2023-03-01T12:26:19;3.80;99.90
7920;DHT22;18778;47.610;9.776;2023-03-01T12:31:53;3.60;99.90
7920;DHT22;18778;47.610;9.776;2023-03-01T12:34:29;3.60;99.90
7920;DHT22;18778;47.610;9.776;2023-03-01T12:37:20;3.00;99.90
7920;DHT22;18778;47.610;9.776;2023-03-01T12:51:24;3.20;99.90
7920;DHT22;18778;47.610;9.776;2023-03-01T12:53:53;2.70;99.90
7920;DHT22;18778;47.610;9.776;2023-03-01T12:56:25;3.20;99.90
7920;DHT22;18778;47.610;9.776;2023-03-01T12:59:20;3.20;99.90
7920;DHT22;18778;47.610;9.776;2023-03-01T13:02:13;3.60;99.90
7920;DHT22;18778;47.610;9.776;2023-03-01T13:05:05;3.60;99.90
7920;DHT22;18778;47.610;9.776;2023-03-01T13:23:24;3.40;99.90
7920;DHT22;18778;47.610;9.776;2023-03-01T13:31:01;3.40;99.90
7920;DHT22;18778;47.610;9.776;2023-03-01T13:41:04;3.60;99.90
7920;DHT22;18778;47.610;9.776;2023-03-01T13:43:35;3.40;99.90
7920;DHT22;18778;47.610;9.776;2023-03-01T13:46:09;3.60;99.90
7920;DHT22;18778;47.610;9.776;2023-03-01T13:48:37;3.90;99.90
7920;DHT22;18778;47.610;9.776;2023-03-01T13:51:07;4.00;99.90
7920;DHT22;18778;47.610;9.776;2023-03-01T13:53:39;4.00;99.90
7920;DHT22;18778;47.610;9.776;2023-03-01T13:58:53;4.40;99.30
7920;DHT22;18778;47.610;9.776;2023-03-01T14:03:49;4.00;99.80
7920;DHT22;18778;47.610;9.776;2023-03-01T14:06:21;4.10;99.90
7920;DHT22;18778;47.610;9.776;2023-03-01T14:08:49;3.90;99.60
7920;DHT22;18778;47.610;9.776;2023-03-01T14:19:19;4.90;98.70
7920;DHT22;18778;47.610;9.776;2023-03-01T14:21:47;4.30;99.50
7920;DHT22;18778;47.610;9.776;2023-03-01T14:24:21;4.50;99.00
7920;DHT22;18778;47.610;9.776;2023-03-01T14:26:49;4.30;99.20
7920;DHT22;18778;47.610;9.776;2023-03-01T14:29:37;4.10;99.40
7920;DHT22;18778;47.610;9.776;2023-03-01T14:32:17;4.10;99.90
7920;DHT22;18778;47.610;9.776;2023-03-01T14:34:45;4.80;98.20
7920;DHT22;18778;47.610;9.776;2023-03-01T14:37:19;4.50;99.10
7920;DHT22;18778;47.610;9.776;2023-03-01T14:39:45;4.10;99.90
7920;DHT22;18778;47.610;9.776;2023-03-01T14:42:12;4.10;99.50
7920;DHT22;18778;47.610;9.776;2023-03-01T14:44:42;3.90;99.60
7920;DHT22;18778;47.610;9.776;2023-03-01T14:49:58;3.60;99.90
7920;DHT22;18778;47.610;9.776;2023-03-01T14:52:31;3.30;99.90
7920;DHT22;18778;47.610;9.776;2023-03-01T14:54:59;3.00;99.90
7920;DHT22;18778;47.610;9.776;2023-03-01T14:57:26;3.30;99.90
7920;DHT22;18778;47.610;9.776;2023-03-01T14:59:58;3.10;99.90
7920;DHT22;18778;47.610;9.776;2023-03-01T15:02:26;3.00;99.90
7920;DHT22;18778;47.610;9.776;2023-03-01T15:04:55;2.80;99.90
7920;DHT22;18778;47.610;9.776;2023-03-01T15:07:34;2.70;99.90
7920;DHT22;18778;47.610;9.776;2023-03-01T15:10:02;3.30;99.90
7920;DHT22;18778;47.610;9.776;2023-03-01T15:14:55;3.10;99.90
7920;DHT22;18778;47.610;9.776;2023-03-01T15:17:37;3.00;99.90
7920;DHT22;18778;47.610;9.776;2023-03-01T15:20:16;3.00;99.90
7920;DHT22;18778;47.610;9.776;2023-03-01T15:22:46;3.30;99.90
7920;DHT22;18778;47.610;9.776;2023-03-01T15:25:18;2.90;99.90
7920;DHT22;18778;47.610;9.776;2023-03-01T15:27:46;2.80;99.90
7920;DHT22;18778;47.610;9.776;2023-03-01T15:30:30;2.70;99.90
7920;DHT22;18778;47.610;9.776;2023-03-01T15:35:57;3.20;99.90
7920;DHT22;18778;47.610;9.776;2023-03-01T15:41:26;2.90;99.90
7920;DHT22;18778;47.610;9.776;2023-03-01T15:43:53;2.40;99.90
7920;DHT22;18778;47.610;9.776;2023-03-01T15:46:29;2.50;99.90
7920;DHT22;18778;47.610;9.776;2023-03-01T15:48:59;2.00;99.90
7920;DHT22;18778;47.610;9.776;2023-03-01T15:51:34;1.90;99.90
7920;DHT22;18778;47.610;9.776;2023-03-01T15:54:12;2.40;99.90
7920;DHT22;18778;47.610;9.776;2023-03-01T15:56:39;2.40;99.90
7920;DHT22;18778;47.610;9.776;2023-03-01T15:59:04;2.10;99.90
7920;DHT22;18778;47.610;9.776;2023-03-01T16:01:32;2.30;99.90
7920;DHT22;18778;47.610;9.776;2023-03-01T16:03:59;2.00;99.90
7920;DHT22;18778;47.610;9.776;2023-03-01T16:06:25;2.20;99.90
7920;DHT22;18778;47.610;9.776;2023-03-01T16:08:50;2.20;99.90
7920;DHT22;18778;47.610;9.776;2023-03-01T16:11:18;1.50;99.90
7920;DHT22;18778;47.610;9.776;2023-03-01T16:13:45;1.80;99.90
7920;DHT22;18778;47.610;9.776;2023-03-01T16:16:12;2.10;99.90
7920;DHT22;18778;47.610;9.776;2023-03-01T16:18:40;2.00;99.90
7920;DHT22;18778;47.610;9.776;2023-03-01T16:21:06;2.10;99.90
7920;DHT22;18778;47.610;9.776;2023-03-01T16:23:32;1.80;99.90
7920;DHT22;18778;47.610;9.776;2023-03-01T16:26:01;1.80;99.90
7920;DHT22;18778;47.610;9.776;2023-03-01T16:28:26;2.00;99.90
7920;DHT22;18778;47.610;9.776;2023-03-01T16:30:52;1.90;99.90
7920;DHT22;18778;47.610;9.776;2023-03-01T16:33:17;1.70;99.90
7920;DHT22;18778;47.610;9.776;2023-03-01T16:35:43;1.80;99.90
7920;DHT22;18778;47.610;9.776;2023-03-01T16:38:09;1.40;99.90
7920;DHT22;18778;47.610;9.776;2023-03-01T16:40:35;1.50;99.90
7920;DHT22;18778;47.610;9.776;2023-03-01T16:43:01;1.60;99.90
7920;DHT22;18778;47.610;9.776;2023-03-01T16:45:29;1.80;99.90
7920;DHT22;18778;47.610;9.776;2023-03-01T16:47:57;1.70;99.90
7920;DHT22;18778;47.610;9.776;2023-03-01T16:50:23;1.80;99.90
7920;DHT22;18778;47.610;9.776;2023-03-01T16:52:49;1.70;99.90
7920;DHT22;18778;47.610;9.776;2023-03-01T16:55:15;1.70;99.90
7920;DHT22;18778;47.610;9.776;2023-03-01T16:57:40;1.90;99.90
7920;DHT22;18778;47.610;9.776;2023-03-01T17:00:13;1.60;99.90
7920;DHT22;18778;47.610;9.776;2023-03-01T17:02:39;2.00;99.90
7920;DHT22;18778;47.610;9.776;2023-03-01T17:05:07;1.70;99.90
7920;DHT22;18778;47.610;9.776;2023-03-01T17:07:33;1.90;99.90
7920;DHT22;18778;47.610;9.776;2023-03-01T17:10:00;1.60;99.90
7920;DHT22;18778;47.610;9.776;2023-03-01T17:12:26;3.70;99.90
7920;DHT22;18778;47.610;9.776;2023-03-01T17:14:51;1.60;99.90
7920;DHT22;18778;47.610;9.776;2023-03-01T17:17:17;1.40;99.90
7920;DHT22;18778;47.610;9.776;2023-03-01T17:19:42;1.70;99.90
7920;DHT22;18778;47.610;9.776;2023-03-01T17:22:09;1.60;99.90
7920;DHT22;18778;47.610;9.776;2023-03-01T17:24:39;1.50;99.90
7920;DHT22;18778;47.610;9.776;2023-03-01T17:27:06;1.30;99.90
7920;DHT22;18778;47.610;9.776;2023-03-01T17:29:32;1.70;99.90
7920;DHT22;18778;47.610;9.776;2023-03-01T17:31:58;1.60;99.90
7920;DHT22;18778;47.610;9.776;2023-03-01T17:34:24;1.70;99.90
7920;DHT22;18778;47.610;9.776;2023-03-01T17:36:51;1.70;99.90
7920;DHT22;18778;47.610;9.776;2023-03-01T17:39:17;2.50;99.90
7920;DHT22;18778;47.610;9.776;2023-03-01T17:42:03;1.50;99.90
7920;DHT22;18778;47.610;9.776;2023-03-01T17:44:30;1.50;99.90
7920;DHT22;18778;47.610;9.776;2023-03-01T17:46:56;1.60;99.90
7920;DHT22;18778;47.610;9.776;2023-03-01T17:49:22;1.60;99.90
7920;DHT22;18778;47.610;9.776;2023-03-01T17:51:47;1.50;99.90
7920;DHT22;18778;47.610;9.776;2023-03-01T17:54:13;1.70;99.90
7920;DHT22;18778;47.610;9.776;2023-03-01T17:56:38;1.50;99.90
7920;DHT22;18778;47.610;9.776;2023-03-01T17:59:06;1.60;99.90
7920;DHT22;18778;47.610;9.776;2023-03-01T18:01:32;1.70;99.90
7920;DHT22;18778;47.610;9.776;2023-03-01T18:03:59;1.60;99.90